sensor_id;sensor_type;location;lat;lon;timestamp;P1;durP1;ratioP1;P2;durP2;ratioP2
69985;SDS011;57328;52.054;5.294;2022-08-20T00:02:07;19.55;;;9.43;;
69985;SDS011;57328;52.054;5.294;2022-08-20T00:04:34;16.88;;;9.13;;
69985;SDS011;57328;52.054;5.294;2022-08-20T00:07:04;16.88;;;8.98;;
69985;SDS011;57328;52.054;5.294;2022-08-20T00:09:32;20.50;;;9.43;;
69985;SDS011;57328;52.054;5.294;2022-08-20T00:12:02;19.33;;;9.95;;
69985;SDS011;57328;52.054;5.294;2022-08-20T00:14:29;22.92;;;10.13;;
69985;SDS011;57328;52.054;5.294;2022-08-20T00:16:59;18.48;;;9.65;;
69985;SDS011;57328;52.054;5.294;2022-08-20T00:19:27;17.48;;;9.80;;
69985;SDS011;57328;52.054;5.294;2022-08-20T00:21:54;24.02;;;10.35;;
69985;SDS011;57328;52.054;5.294;2022-08-20T00:24:23;19.08;;;10.32;;
69985;SDS011;57328;52.054;5.294;2022-08-20T00:26:51;21.13;;;10.63;;
69985;SDS011;57328;52.054;5.294;2022-08-20T00:29:18;21.45;;;10.52;;
69985;SDS011;57328;52.054;5.294;2022-08-20T00:31:47;18.83;;;9.32;;
69985;SDS011;57328;52.054;5.294;2022-08-20T00:34:15;18.95;;;9.82;;
69985;SDS011;57328;52.054;5.294;2022-08-20T00:36:42;20.38;;;10.18;;
69985;SDS011;57328;52.054;5.294;2022-08-20T00:39:09;16.90;;;8.35;;
69985;SDS011;57328;52.054;5.294;2022-08-20T00:41:36;19.35;;;9.75;;
69985;SDS011;57328;52.054;5.294;2022-08-20T00:44:14;18.05;;;9.25;;
69985;SDS011;57328;52.054;5.294;2022-08-20T00:46:43;16.83;;;9.38;;
69985;SDS011;57328;52.054;5.294;2022-08-20T00:49:14;18.33;;;9.15;;
69985;SDS011;57328;52.054;5.294;2022-08-20T00:51:44;16.13;;;8.65;;
69985;SDS011;57328;52.054;5.294;2022-08-20T00:56:54;19.63;;;10.80;;
69985;SDS011;57328;52.054;5.294;2022-08-20T00:59:24;20.92;;;10.48;;
69985;SDS011;57328;52.054;5.294;2022-08-20T01:01:52;17.80;;;9.45;;
69985;SDS011;57328;52.054;5.294;2022-08-20T01:04:21;22.10;;;10.23;;
69985;SDS011;57328;52.054;5.294;2022-08-20T01:06:50;21.17;;;10.30;;
69985;SDS011;57328;52.054;5.294;2022-08-20T01:09:17;21.10;;;10.02;;
69985;SDS011;57328;52.054;5.294;2022-08-20T01:12:05;20.80;;;10.93;;
69985;SDS011;57328;52.054;5.294;2022-08-20T01:14:32;17.83;;;9.38;;
69985;SDS011;57328;52.054;5.294;2022-08-20T01:17:06;17.77;;;9.55;;
69985;SDS011;57328;52.054;5.294;2022-08-20T01:19:39;23.20;;;10.73;;
69985;SDS011;57328;52.054;5.294;2022-08-20T01:22:07;18.92;;;9.52;;
69985;SDS011;57328;52.054;5.294;2022-08-20T01:27:21;9.50;;;5.40;;
69985;SDS011;57328;52.054;5.294;2022-08-20T01:29:49;18.67;;;10.00;;
69985;SDS011;57328;52.054;5.294;2022-08-20T01:32:17;14.23;;;6.55;;
69985;SDS011;57328;52.054;5.294;2022-08-20T01:34:44;18.52;;;9.65;;
69985;SDS011;57328;52.054;5.294;2022-08-20T01:37:11;20.88;;;9.85;;
69985;SDS011;57328;52.054;5.294;2022-08-20T01:39:38;18.48;;;9.52;;
69985;SDS011;57328;52.054;5.294;2022-08-20T01:42:23;19.33;;;9.10;;
69985;SDS011;57328;52.054;5.294;2022-08-20T01:44:51;20.00;;;9.02;;
69985;SDS011;57328;52.054;5.294;2022-08-20T01:49:49;16.52;;;7.90;;
69985;SDS011;57328;52.054;5.294;2022-08-20T01:52:30;16.30;;;8.48;;
69985;SDS011;57328;52.054;5.294;2022-08-20T01:54:59;16.88;;;8.45;;
69985;SDS011;57328;52.054;5.294;2022-08-20T01:59:54;14.65;;;7.18;;
69985;SDS011;57328;52.054;5.294;2022-08-20T02:02:21;16.75;;;7.05;;
69985;SDS011;57328;52.054;5.294;2022-08-20T02:04:49;12.50;;;6.82;;
69985;SDS011;57328;52.054;5.294;2022-08-20T02:07:18;16.00;;;8.13;;
69985;SDS011;57328;52.054;5.294;2022-08-20T02:09:46;19.30;;;8.23;;
69985;SDS011;57328;52.054;5.294;2022-08-20T02:12:14;15.60;;;7.50;;
69985;SDS011;57328;52.054;5.294;2022-08-20T02:14:44;14.18;;;6.82;;
69985;SDS011;57328;52.054;5.294;2022-08-20T02:17:12;14.80;;;7.97;;
69985;SDS011;57328;52.054;5.294;2022-08-20T02:19:41;12.38;;;7.05;;
69985;SDS011;57328;52.054;5.294;2022-08-20T02:22:12;13.50;;;6.72;;
69985;SDS011;57328;52.054;5.294;2022-08-20T02:24:40;13.48;;;6.95;;
69985;SDS011;57328;52.054;5.294;2022-08-20T02:27:09;15.80;;;7.45;;
69985;SDS011;57328;52.054;5.294;2022-08-20T02:29:36;16.80;;;7.25;;
69985;SDS011;57328;52.054;5.294;2022-08-20T02:32:03;18.55;;;7.68;;
69985;SDS011;57328;52.054;5.294;2022-08-20T02:34:51;16.48;;;7.00;;
69985;SDS011;57328;52.054;5.294;2022-08-20T02:37:18;15.45;;;8.23;;
69985;SDS011;57328;52.054;5.294;2022-08-20T02:39:45;14.02;;;7.55;;
69985;SDS011;57328;52.054;5.294;2022-08-20T02:42:13;10.88;;;6.03;;
69985;SDS011;57328;52.054;5.294;2022-08-20T02:44:40;14.30;;;6.30;;
69985;SDS011;57328;52.054;5.294;2022-08-20T02:47:07;12.38;;;5.78;;
69985;SDS011;57328;52.054;5.294;2022-08-20T02:49:34;13.85;;;5.32;;
69985;SDS011;57328;52.054;5.294;2022-08-20T02:52:02;9.82;;;4.80;;
69985;SDS011;57328;52.054;5.294;2022-08-20T02:54:29;11.18;;;6.13;;
69985;SDS011;57328;52.054;5.294;2022-08-20T02:56:57;13.30;;;5.25;;
69985;SDS011;57328;52.054;5.294;2022-08-20T02:59:24;12.23;;;5.22;;
69985;SDS011;57328;52.054;5.294;2022-08-20T03:01:51;12.35;;;5.80;;
69985;SDS011;57328;52.054;5.294;2022-08-20T03:06:52;12.90;;;5.97;;
69985;SDS011;57328;52.054;5.294;2022-08-20T03:09:19;15.13;;;6.07;;
69985;SDS011;57328;52.054;5.294;2022-08-20T03:11:47;11.43;;;5.50;;
69985;SDS011;57328;52.054;5.294;2022-08-20T03:14:14;15.00;;;6.68;;
69985;SDS011;57328;52.054;5.294;2022-08-20T03:16:41;14.05;;;5.75;;
69985;SDS011;57328;52.054;5.294;2022-08-20T03:19:12;15.73;;;6.70;;
69985;SDS011;57328;52.054;5.294;2022-08-20T03:21:40;10.30;;;5.72;;
69985;SDS011;57328;52.054;5.294;2022-08-20T03:24:07;12.70;;;5.28;;
69985;SDS011;57328;52.054;5.294;2022-08-20T03:26:34;10.27;;;4.13;;
69985;SDS011;57328;52.054;5.294;2022-08-20T03:29:02;12.40;;;4.78;;
69985;SDS011;57328;52.054;5.294;2022-08-20T03:31:29;11.88;;;4.55;;
69985;SDS011;57328;52.054;5.294;2022-08-20T03:33:56;9.25;;;4.13;;
69985;SDS011;57328;52.054;5.294;2022-08-20T03:36:24;8.30;;;4.00;;
69985;SDS011;57328;52.054;5.294;2022-08-20T03:38:55;5.40;;;3.30;;
69985;SDS011;57328;52.054;5.294;2022-08-20T03:41:22;11.95;;;4.60;;
69985;SDS011;57328;52.054;5.294;2022-08-20T03:43:49;10.48;;;4.78;;
69985;SDS011;57328;52.054;5.294;2022-08-20T03:46:17;10.23;;;4.03;;
69985;SDS011;57328;52.054;5.294;2022-08-20T03:48:49;10.13;;;4.00;;
69985;SDS011;57328;52.054;5.294;2022-08-20T03:51:25;10.32;;;4.90;;
69985;SDS011;57328;52.054;5.294;2022-08-20T03:53:52;10.70;;;5.30;;
69985;SDS011;57328;52.054;5.294;2022-08-20T03:56:19;7.07;;;3.90;;
69985;SDS011;57328;52.054;5.294;2022-08-20T03:58:47;6.28;;;3.58;;
69985;SDS011;57328;52.054;5.294;2022-08-20T04:01:14;11.57;;;4.82;;
69985;SDS011;57328;52.054;5.294;2022-08-20T04:04:01;10.75;;;4.22;;
69985;SDS011;57328;52.054;5.294;2022-08-20T04:06:28;12.60;;;6.00;;
69985;SDS011;57328;52.054;5.294;2022-08-20T04:08:56;10.32;;;4.53;;
69985;SDS011;57328;52.054;5.294;2022-08-20T04:11:23;13.30;;;5.50;;
69985;SDS011;57328;52.054;5.294;2022-08-20T04:13:50;10.25;;;5.30;;
69985;SDS011;57328;52.054;5.294;2022-08-20T04:16:17;10.63;;;4.88;;
69985;SDS011;57328;52.054;5.294;2022-08-20T04:18:45;10.07;;;4.45;;
69985;SDS011;57328;52.054;5.294;2022-08-20T04:21:27;9.90;;;5.10;;
69985;SDS011;57328;52.054;5.294;2022-08-20T04:23:58;9.38;;;4.88;;
69985;SDS011;57328;52.054;5.294;2022-08-20T04:26:25;10.13;;;4.97;;
69985;SDS011;57328;52.054;5.294;2022-08-20T04:28:53;12.23;;;5.25;;
69985;SDS011;57328;52.054;5.294;2022-08-20T04:31:20;8.43;;;4.20;;
69985;SDS011;57328;52.054;5.294;2022-08-20T04:33:59;9.25;;;4.60;;
69985;SDS011;57328;52.054;5.294;2022-08-20T04:36:26;10.70;;;4.60;;
69985;SDS011;57328;52.054;5.294;2022-08-20T04:38:53;9.05;;;4.65;;
69985;SDS011;57328;52.054;5.294;2022-08-20T04:41:20;8.30;;;3.90;;
69985;SDS011;57328;52.054;5.294;2022-08-20T04:43:50;9.07;;;4.70;;
69985;SDS011;57328;52.054;5.294;2022-08-20T04:46:19;7.85;;;3.33;;
69985;SDS011;57328;52.054;5.294;2022-08-20T04:48:48;9.00;;;4.20;;
69985;SDS011;57328;52.054;5.294;2022-08-20T04:51:16;7.70;;;3.90;;
69985;SDS011;57328;52.054;5.294;2022-08-20T04:53:44;12.80;;;3.95;;
69985;SDS011;57328;52.054;5.294;2022-08-20T04:56:24;7.93;;;3.85;;
69985;SDS011;57328;52.054;5.294;2022-08-20T04:58:55;10.43;;;5.45;;
69985;SDS011;57328;52.054;5.294;2022-08-20T05:01:23;6.38;;;3.53;;
69985;SDS011;57328;52.054;5.294;2022-08-20T05:06:20;8.48;;;3.55;;
69985;SDS011;57328;52.054;5.294;2022-08-20T05:08:49;8.25;;;4.03;;
69985;SDS011;57328;52.054;5.294;2022-08-20T05:11:17;7.47;;;3.90;;
69985;SDS011;57328;52.054;5.294;2022-08-20T05:14:01;7.10;;;3.67;;
69985;SDS011;57328;52.054;5.294;2022-08-20T05:16:28;4.55;;;2.75;;
69985;SDS011;57328;52.054;5.294;2022-08-20T05:18:56;6.82;;;2.85;;
69985;SDS011;57328;52.054;5.294;2022-08-20T05:21:23;4.75;;;2.03;;
69985;SDS011;57328;52.054;5.294;2022-08-20T05:23:50;9.82;;;4.20;;
69985;SDS011;57328;52.054;5.294;2022-08-20T05:26:17;5.38;;;2.28;;
69985;SDS011;57328;52.054;5.294;2022-08-20T05:28:45;7.68;;;3.53;;
69985;SDS011;57328;52.054;5.294;2022-08-20T05:31:27;7.10;;;3.38;;
69985;SDS011;57328;52.054;5.294;2022-08-20T05:34:05;7.35;;;3.75;;
69985;SDS011;57328;52.054;5.294;2022-08-20T05:36:40;7.50;;;3.95;;
69985;SDS011;57328;52.054;5.294;2022-08-20T05:39:08;9.82;;;3.90;;
69985;SDS011;57328;52.054;5.294;2022-08-20T05:41:36;8.40;;;3.72;;
69985;SDS011;57328;52.054;5.294;2022-08-20T05:44:04;8.00;;;4.18;;
69985;SDS011;57328;52.054;5.294;2022-08-20T05:46:35;8.52;;;4.20;;
69985;SDS011;57328;52.054;5.294;2022-08-20T05:49:07;8.10;;;3.97;;
69985;SDS011;57328;52.054;5.294;2022-08-20T05:54:02;9.30;;;3.47;;
69985;SDS011;57328;52.054;5.294;2022-08-20T05:56:30;6.97;;;3.28;;
69985;SDS011;57328;52.054;5.294;2022-08-20T05:58:58;11.10;;;3.17;;
69985;SDS011;57328;52.054;5.294;2022-08-20T06:01:29;6.13;;;3.00;;
69985;SDS011;57328;52.054;5.294;2022-08-20T06:03:57;8.93;;;3.30;;
69985;SDS011;57328;52.054;5.294;2022-08-20T06:06:43;6.50;;;3.05;;
69985;SDS011;57328;52.054;5.294;2022-08-20T06:09:16;8.05;;;3.00;;
69985;SDS011;57328;52.054;5.294;2022-08-20T06:12:00;10.25;;;2.97;;
69985;SDS011;57328;52.054;5.294;2022-08-20T06:14:28;10.15;;;2.55;;
69985;SDS011;57328;52.054;5.294;2022-08-20T06:17:06;9.52;;;2.80;;
69985;SDS011;57328;52.054;5.294;2022-08-20T06:19:35;8.40;;;3.00;;
69985;SDS011;57328;52.054;5.294;2022-08-20T06:22:03;8.30;;;2.42;;
69985;SDS011;57328;52.054;5.294;2022-08-20T06:24:44;7.18;;;2.47;;
69985;SDS011;57328;52.054;5.294;2022-08-20T06:27:12;8.25;;;2.50;;
69985;SDS011;57328;52.054;5.294;2022-08-20T06:29:40;8.27;;;2.30;;
69985;SDS011;57328;52.054;5.294;2022-08-20T06:32:07;8.52;;;2.60;;
69985;SDS011;57328;52.054;5.294;2022-08-20T06:34:35;7.38;;;2.03;;
69985;SDS011;57328;52.054;5.294;2022-08-20T06:37:15;9.00;;;2.17;;
69985;SDS011;57328;52.054;5.294;2022-08-20T06:39:43;8.18;;;2.40;;
69985;SDS011;57328;52.054;5.294;2022-08-20T06:42:11;10.07;;;2.20;;
69985;SDS011;57328;52.054;5.294;2022-08-20T06:44:46;8.35;;;2.30;;
69985;SDS011;57328;52.054;5.294;2022-08-20T06:47:15;10.23;;;2.42;;
69985;SDS011;57328;52.054;5.294;2022-08-20T06:49:43;7.63;;;1.75;;
69985;SDS011;57328;52.054;5.294;2022-08-20T06:52:10;6.85;;;2.20;;
69985;SDS011;57328;52.054;5.294;2022-08-20T06:54:38;8.68;;;2.45;;
69985;SDS011;57328;52.054;5.294;2022-08-20T06:57:05;8.88;;;1.90;;
69985;SDS011;57328;52.054;5.294;2022-08-20T06:59:32;8.45;;;1.92;;
69985;SDS011;57328;52.054;5.294;2022-08-20T07:01:59;7.82;;;2.13;;
69985;SDS011;57328;52.054;5.294;2022-08-20T07:04:26;6.43;;;1.58;;
69985;SDS011;57328;52.054;5.294;2022-08-20T07:06:54;6.85;;;2.10;;
69985;SDS011;57328;52.054;5.294;2022-08-20T07:09:23;7.53;;;1.90;;
69985;SDS011;57328;52.054;5.294;2022-08-20T07:11:50;7.38;;;1.90;;
69985;SDS011;57328;52.054;5.294;2022-08-20T07:14:18;6.30;;;1.70;;
69985;SDS011;57328;52.054;5.294;2022-08-20T07:16:45;9.25;;;2.03;;
69985;SDS011;57328;52.054;5.294;2022-08-20T07:19:13;7.15;;;2.03;;
69985;SDS011;57328;52.054;5.294;2022-08-20T07:21:40;7.90;;;1.90;;
69985;SDS011;57328;52.054;5.294;2022-08-20T07:24:07;7.78;;;2.03;;
69985;SDS011;57328;52.054;5.294;2022-08-20T07:29:02;8.15;;;1.73;;
69985;SDS011;57328;52.054;5.294;2022-08-20T07:31:29;7.72;;;1.70;;
69985;SDS011;57328;52.054;5.294;2022-08-20T07:34:15;9.88;;;1.40;;
69985;SDS011;57328;52.054;5.294;2022-08-20T07:36:44;7.35;;;1.52;;
69985;SDS011;57328;52.054;5.294;2022-08-20T07:39:13;6.43;;;1.67;;
69985;SDS011;57328;52.054;5.294;2022-08-20T07:41:41;6.85;;;1.77;;
69985;SDS011;57328;52.054;5.294;2022-08-20T07:44:21;9.57;;;1.80;;
69985;SDS011;57328;52.054;5.294;2022-08-20T07:46:57;5.63;;;1.50;;
69985;SDS011;57328;52.054;5.294;2022-08-20T07:49:24;9.55;;;1.90;;
69985;SDS011;57328;52.054;5.294;2022-08-20T07:51:51;7.97;;;1.90;;
69985;SDS011;57328;52.054;5.294;2022-08-20T07:54:18;6.53;;;1.52;;
69985;SDS011;57328;52.054;5.294;2022-08-20T07:56:46;7.13;;;1.58;;
69985;SDS011;57328;52.054;5.294;2022-08-20T07:59:14;7.35;;;1.60;;
69985;SDS011;57328;52.054;5.294;2022-08-20T08:01:42;7.13;;;1.55;;
69985;SDS011;57328;52.054;5.294;2022-08-20T08:04:09;9.38;;;1.52;;
69985;SDS011;57328;52.054;5.294;2022-08-20T08:06:36;6.10;;;1.50;;
69985;SDS011;57328;52.054;5.294;2022-08-20T08:09:10;9.05;;;1.70;;
69985;SDS011;57328;52.054;5.294;2022-08-20T08:11:45;5.78;;;1.30;;
69985;SDS011;57328;52.054;5.294;2022-08-20T08:14:18;6.18;;;1.30;;
69985;SDS011;57328;52.054;5.294;2022-08-20T08:16:48;7.45;;;1.73;;
69985;SDS011;57328;52.054;5.294;2022-08-20T08:19:15;10.43;;;1.67;;
69985;SDS011;57328;52.054;5.294;2022-08-20T08:21:44;6.38;;;1.38;;
69985;SDS011;57328;52.054;5.294;2022-08-20T08:24:11;9.85;;;1.63;;
69985;SDS011;57328;52.054;5.294;2022-08-20T08:26:46;7.97;;;1.58;;
69985;SDS011;57328;52.054;5.294;2022-08-20T08:29:15;8.57;;;1.58;;
69985;SDS011;57328;52.054;5.294;2022-08-20T08:31:42;7.45;;;1.80;;
69985;SDS011;57328;52.054;5.294;2022-08-20T08:34:09;8.88;;;1.63;;
69985;SDS011;57328;52.054;5.294;2022-08-20T08:36:37;8.10;;;1.45;;
69985;SDS011;57328;52.054;5.294;2022-08-20T08:39:04;9.15;;;1.52;;
69985;SDS011;57328;52.054;5.294;2022-08-20T08:41:40;8.35;;;1.80;;
69985;SDS011;57328;52.054;5.294;2022-08-20T08:44:14;6.20;;;1.83;;
69985;SDS011;57328;52.054;5.294;2022-08-20T08:46:49;8.07;;;1.58;;
69985;SDS011;57328;52.054;5.294;2022-08-20T08:49:20;8.77;;;1.52;;
69985;SDS011;57328;52.054;5.294;2022-08-20T08:52:03;4.60;;;1.30;;
69985;SDS011;57328;52.054;5.294;2022-08-20T08:54:33;6.88;;;1.42;;
69985;SDS011;57328;52.054;5.294;2022-08-20T08:57:01;7.43;;;1.45;;
69985;SDS011;57328;52.054;5.294;2022-08-20T08:59:28;22.75;;;1.55;;
69985;SDS011;57328;52.054;5.294;2022-08-20T09:02:22;7.97;;;1.70;;
69985;SDS011;57328;52.054;5.294;2022-08-20T09:04:51;6.55;;;1.38;;
69985;SDS011;57328;52.054;5.294;2022-08-20T09:07:21;8.13;;;1.60;;
69985;SDS011;57328;52.054;5.294;2022-08-20T09:09:49;6.28;;;1.38;;
69985;SDS011;57328;52.054;5.294;2022-08-20T09:12:18;8.90;;;1.23;;
69985;SDS011;57328;52.054;5.294;2022-08-20T09:14:46;6.07;;;1.27;;
69985;SDS011;57328;52.054;5.294;2022-08-20T09:17:14;8.15;;;1.50;;
69985;SDS011;57328;52.054;5.294;2022-08-20T09:19:41;8.65;;;1.63;;
69985;SDS011;57328;52.054;5.294;2022-08-20T09:22:15;7.63;;;1.58;;
69985;SDS011;57328;52.054;5.294;2022-08-20T09:24:43;6.78;;;1.10;;
69985;SDS011;57328;52.054;5.294;2022-08-20T09:27:10;7.13;;;1.35;;
69985;SDS011;57328;52.054;5.294;2022-08-20T09:29:38;6.80;;;1.50;;
69985;SDS011;57328;52.054;5.294;2022-08-20T09:32:09;9.48;;;1.70;;
69985;SDS011;57328;52.054;5.294;2022-08-20T09:34:42;8.45;;;1.40;;
69985;SDS011;57328;52.054;5.294;2022-08-20T09:37:10;6.50;;;1.38;;
69985;SDS011;57328;52.054;5.294;2022-08-20T09:39:37;6.95;;;1.42;;
69985;SDS011;57328;52.054;5.294;2022-08-20T09:42:08;5.20;;;1.13;;
69985;SDS011;57328;52.054;5.294;2022-08-20T09:44:35;8.02;;;1.35;;
69985;SDS011;57328;52.054;5.294;2022-08-20T09:47:03;6.10;;;1.40;;
69985;SDS011;57328;52.054;5.294;2022-08-20T09:49:30;7.60;;;1.50;;
69985;SDS011;57328;52.054;5.294;2022-08-20T09:51:57;5.68;;;1.55;;
69985;SDS011;57328;52.054;5.294;2022-08-20T09:54:24;5.82;;;1.33;;
69985;SDS011;57328;52.054;5.294;2022-08-20T09:57:02;8.20;;;1.20;;
69985;SDS011;57328;52.054;5.294;2022-08-20T09:59:30;5.25;;;1.23;;
69985;SDS011;57328;52.054;5.294;2022-08-20T10:04:25;7.40;;;1.50;;
69985;SDS011;57328;52.054;5.294;2022-08-20T10:06:52;8.70;;;1.73;;
69985;SDS011;57328;52.054;5.294;2022-08-20T10:09:19;7.93;;;1.58;;
69985;SDS011;57328;52.054;5.294;2022-08-20T10:11:47;7.15;;;1.50;;
69985;SDS011;57328;52.054;5.294;2022-08-20T10:14:14;7.57;;;1.25;;
69985;SDS011;57328;52.054;5.294;2022-08-20T10:16:41;7.65;;;1.45;;
69985;SDS011;57328;52.054;5.294;2022-08-20T10:19:08;6.07;;;1.45;;
69985;SDS011;57328;52.054;5.294;2022-08-20T10:21:36;5.80;;;1.40;;
69985;SDS011;57328;52.054;5.294;2022-08-20T10:24:04;9.52;;;1.88;;
69985;SDS011;57328;52.054;5.294;2022-08-20T10:26:32;10.18;;;1.85;;
69985;SDS011;57328;52.054;5.294;2022-08-20T10:28:59;8.20;;;1.38;;
69985;SDS011;57328;52.054;5.294;2022-08-20T10:31:27;7.13;;;1.60;;
69985;SDS011;57328;52.054;5.294;2022-08-20T10:33:54;9.65;;;1.67;;
69985;SDS011;57328;52.054;5.294;2022-08-20T10:38:49;6.45;;;1.48;;
69985;SDS011;57328;52.054;5.294;2022-08-20T10:41:16;4.68;;;1.25;;
69985;SDS011;57328;52.054;5.294;2022-08-20T10:43:45;9.20;;;1.73;;
69985;SDS011;57328;52.054;5.294;2022-08-20T10:46:12;5.05;;;1.40;;
69985;SDS011;57328;52.054;5.294;2022-08-20T10:48:39;7.38;;;1.60;;
69985;SDS011;57328;52.054;5.294;2022-08-20T10:51:06;6.47;;;1.70;;
69985;SDS011;57328;52.054;5.294;2022-08-20T10:53:34;8.85;;;1.65;;
69985;SDS011;57328;52.054;5.294;2022-08-20T10:56:01;5.68;;;1.58;;
69985;SDS011;57328;52.054;5.294;2022-08-20T10:58:28;8.93;;;1.63;;
69985;SDS011;57328;52.054;5.294;2022-08-20T11:01:05;9.20;;;1.70;;
69985;SDS011;57328;52.054;5.294;2022-08-20T11:03:33;8.00;;;1.67;;
69985;SDS011;57328;52.054;5.294;2022-08-20T11:06:01;7.85;;;1.77;;
69985;SDS011;57328;52.054;5.294;2022-08-20T11:08:28;6.40;;;1.30;;
69985;SDS011;57328;52.054;5.294;2022-08-20T11:11:01;9.52;;;1.70;;
69985;SDS011;57328;52.054;5.294;2022-08-20T11:13:29;6.85;;;1.80;;
69985;SDS011;57328;52.054;5.294;2022-08-20T11:15:58;7.20;;;1.40;;
69985;SDS011;57328;52.054;5.294;2022-08-20T11:18:27;7.45;;;1.40;;
69985;SDS011;57328;52.054;5.294;2022-08-20T11:20:55;11.07;;;2.03;;
69985;SDS011;57328;52.054;5.294;2022-08-20T11:23:23;10.02;;;1.77;;
69985;SDS011;57328;52.054;5.294;2022-08-20T11:25:50;7.30;;;1.50;;
69985;SDS011;57328;52.054;5.294;2022-08-20T11:28:17;7.57;;;1.67;;
69985;SDS011;57328;52.054;5.294;2022-08-20T11:30:57;9.48;;;1.80;;
69985;SDS011;57328;52.054;5.294;2022-08-20T11:33:24;7.88;;;1.50;;
69985;SDS011;57328;52.054;5.294;2022-08-20T11:35:51;10.55;;;1.95;;
69985;SDS011;57328;52.054;5.294;2022-08-20T11:38:18;5.55;;;1.60;;
69985;SDS011;57328;52.054;5.294;2022-08-20T11:40:45;9.23;;;1.75;;
69985;SDS011;57328;52.054;5.294;2022-08-20T11:43:13;9.90;;;1.70;;
69985;SDS011;57328;52.054;5.294;2022-08-20T11:45:43;7.55;;;1.65;;
69985;SDS011;57328;52.054;5.294;2022-08-20T11:48:10;8.52;;;1.45;;
69985;SDS011;57328;52.054;5.294;2022-08-20T11:50:38;4.82;;;1.80;;
69985;SDS011;57328;52.054;5.294;2022-08-20T11:53:05;7.63;;;1.83;;
69985;SDS011;57328;52.054;5.294;2022-08-20T11:58:00;8.23;;;1.77;;
69985;SDS011;57328;52.054;5.294;2022-08-20T12:00:28;7.80;;;1.80;;
69985;SDS011;57328;52.054;5.294;2022-08-20T12:02:58;8.20;;;1.65;;
69985;SDS011;57328;52.054;5.294;2022-08-20T12:05:25;7.43;;;1.85;;
69985;SDS011;57328;52.054;5.294;2022-08-20T12:07:55;7.57;;;2.00;;
69985;SDS011;57328;52.054;5.294;2022-08-20T12:10:22;9.48;;;1.98;;
69985;SDS011;57328;52.054;5.294;2022-08-20T12:12:53;7.93;;;1.80;;
69985;SDS011;57328;52.054;5.294;2022-08-20T12:15:20;8.20;;;2.00;;
69985;SDS011;57328;52.054;5.294;2022-08-20T12:17:47;6.88;;;1.95;;
69985;SDS011;57328;52.054;5.294;2022-08-20T12:20:14;9.90;;;2.10;;
69985;SDS011;57328;52.054;5.294;2022-08-20T12:22:42;7.93;;;1.70;;
69985;SDS011;57328;52.054;5.294;2022-08-20T12:25:09;8.25;;;2.33;;
69985;SDS011;57328;52.054;5.294;2022-08-20T12:27:38;8.48;;;1.95;;
69985;SDS011;57328;52.054;5.294;2022-08-20T12:30:10;9.77;;;2.05;;
69985;SDS011;57328;52.054;5.294;2022-08-20T12:32:38;8.00;;;1.90;;
69985;SDS011;57328;52.054;5.294;2022-08-20T12:35:05;6.72;;;1.73;;
69985;SDS011;57328;52.054;5.294;2022-08-20T12:40:01;10.75;;;2.15;;
69985;SDS011;57328;52.054;5.294;2022-08-20T12:42:29;9.90;;;2.80;;
69985;SDS011;57328;52.054;5.294;2022-08-20T12:44:58;6.88;;;2.10;;
69985;SDS011;57328;52.054;5.294;2022-08-20T12:47:27;8.40;;;2.13;;
69985;SDS011;57328;52.054;5.294;2022-08-20T12:50:17;10.20;;;1.83;;
69985;SDS011;57328;52.054;5.294;2022-08-20T12:52:43;8.57;;;2.15;;
69985;SDS011;57328;52.054;5.294;2022-08-20T12:57:41;11.57;;;2.40;;
69985;SDS011;57328;52.054;5.294;2022-08-20T13:00:27;7.50;;;1.80;;
69985;SDS011;57328;52.054;5.294;2022-08-20T13:02:58;8.50;;;1.83;;
69985;SDS011;57328;52.054;5.294;2022-08-20T13:05:26;9.35;;;2.40;;
69985;SDS011;57328;52.054;5.294;2022-08-20T13:10:31;10.70;;;2.00;;
69985;SDS011;57328;52.054;5.294;2022-08-20T13:12:59;11.02;;;2.22;;
69985;SDS011;57328;52.054;5.294;2022-08-20T13:15:29;9.85;;;2.00;;
69985;SDS011;57328;52.054;5.294;2022-08-20T13:17:58;10.15;;;2.20;;
69985;SDS011;57328;52.054;5.294;2022-08-20T13:20:25;9.25;;;1.80;;
69985;SDS011;57328;52.054;5.294;2022-08-20T13:23:00;9.80;;;2.10;;
69985;SDS011;57328;52.054;5.294;2022-08-20T13:25:27;9.88;;;2.00;;
69985;SDS011;57328;52.054;5.294;2022-08-20T13:27:56;8.77;;;1.98;;
69985;SDS011;57328;52.054;5.294;2022-08-20T13:30:24;10.45;;;1.88;;
69985;SDS011;57328;52.054;5.294;2022-08-20T13:32:51;6.65;;;1.70;;
69985;SDS011;57328;52.054;5.294;2022-08-20T13:35:18;7.25;;;1.73;;
69985;SDS011;57328;52.054;5.294;2022-08-20T13:37:48;8.77;;;1.55;;
69985;SDS011;57328;52.054;5.294;2022-08-20T13:40:15;7.43;;;1.70;;
69985;SDS011;57328;52.054;5.294;2022-08-20T13:42:43;7.57;;;1.67;;
69985;SDS011;57328;52.054;5.294;2022-08-20T13:45:10;6.25;;;1.45;;
69985;SDS011;57328;52.054;5.294;2022-08-20T13:47:38;9.77;;;1.70;;
69985;SDS011;57328;52.054;5.294;2022-08-20T13:52:33;7.55;;;1.83;;
69985;SDS011;57328;52.054;5.294;2022-08-20T13:55:02;6.38;;;1.70;;
69985;SDS011;57328;52.054;5.294;2022-08-20T13:57:32;8.10;;;1.83;;
69985;SDS011;57328;52.054;5.294;2022-08-20T14:00:00;8.95;;;2.00;;
69985;SDS011;57328;52.054;5.294;2022-08-20T14:02:27;7.72;;;1.73;;
69985;SDS011;57328;52.054;5.294;2022-08-20T14:04:54;7.70;;;1.83;;
69985;SDS011;57328;52.054;5.294;2022-08-20T14:07:28;7.03;;;1.52;;
69985;SDS011;57328;52.054;5.294;2022-08-20T14:10:20;9.05;;;1.75;;
69985;SDS011;57328;52.054;5.294;2022-08-20T14:12:45;9.30;;;1.98;;
69985;SDS011;57328;52.054;5.294;2022-08-20T14:15:13;8.57;;;1.85;;
69985;SDS011;57328;52.054;5.294;2022-08-20T14:17:41;6.85;;;1.60;;
69985;SDS011;57328;52.054;5.294;2022-08-20T14:20:10;7.38;;;1.98;;
69985;SDS011;57328;52.054;5.294;2022-08-20T14:22:38;8.85;;;1.75;;
69985;SDS011;57328;52.054;5.294;2022-08-20T14:25:05;7.35;;;2.17;;
69985;SDS011;57328;52.054;5.294;2022-08-20T14:27:33;9.82;;;2.10;;
69985;SDS011;57328;52.054;5.294;2022-08-20T14:30:00;7.97;;;1.80;;
69985;SDS011;57328;52.054;5.294;2022-08-20T14:32:28;8.27;;;1.88;;
69985;SDS011;57328;52.054;5.294;2022-08-20T14:34:55;7.18;;;1.88;;
69985;SDS011;57328;52.054;5.294;2022-08-20T14:37:25;10.90;;;2.10;;
69985;SDS011;57328;52.054;5.294;2022-08-20T14:39:54;7.22;;;1.85;;
69985;SDS011;57328;52.054;5.294;2022-08-20T14:42:27;5.70;;;1.90;;
69985;SDS011;57328;52.054;5.294;2022-08-20T14:44:55;8.45;;;2.15;;
69985;SDS011;57328;52.054;5.294;2022-08-20T14:47:28;10.02;;;2.28;;
69985;SDS011;57328;52.054;5.294;2022-08-20T14:49:56;9.15;;;1.70;;
69985;SDS011;57328;52.054;5.294;2022-08-20T14:52:27;7.38;;;1.70;;
69985;SDS011;57328;52.054;5.294;2022-08-20T14:54:57;8.77;;;1.80;;
69985;SDS011;57328;52.054;5.294;2022-08-20T14:57:24;7.47;;;1.83;;
69985;SDS011;57328;52.054;5.294;2022-08-20T14:59:51;8.02;;;1.88;;
69985;SDS011;57328;52.054;5.294;2022-08-20T15:02:19;9.07;;;1.88;;
69985;SDS011;57328;52.054;5.294;2022-08-20T15:07:26;8.18;;;2.03;;
69985;SDS011;57328;52.054;5.294;2022-08-20T15:09:54;6.75;;;1.90;;
69985;SDS011;57328;52.054;5.294;2022-08-20T15:12:22;9.65;;;2.20;;
69985;SDS011;57328;52.054;5.294;2022-08-20T15:14:49;5.88;;;1.83;;
69985;SDS011;57328;52.054;5.294;2022-08-20T15:19:45;8.88;;;1.83;;
69985;SDS011;57328;52.054;5.294;2022-08-20T15:22:13;9.93;;;2.25;;
69985;SDS011;57328;52.054;5.294;2022-08-20T15:24:40;5.90;;;1.70;;
69985;SDS011;57328;52.054;5.294;2022-08-20T15:29:38;6.97;;;1.80;;
69985;SDS011;57328;52.054;5.294;2022-08-20T15:32:05;7.03;;;1.70;;
69985;SDS011;57328;52.054;5.294;2022-08-20T15:34:34;8.82;;;1.70;;
69985;SDS011;57328;52.054;5.294;2022-08-20T15:37:08;7.65;;;1.75;;
69985;SDS011;57328;52.054;5.294;2022-08-20T15:39:36;5.97;;;1.83;;
69985;SDS011;57328;52.054;5.294;2022-08-20T15:42:03;8.13;;;1.83;;